• Join FlightAware (Why Join?)
  • Login
  • US Flag 
08:06AM EDT


 

Airport Tracker/Info


-or-


 

Live Flight TrackerFlight Track Log ✈ SWA1182 ✈ 12-Feb-2014 ✈ KSMF - KLAX

Flight Track Log - Related Links

Times and Time Zones

All times are in EST time to prevent confusion due to time zone crossing. See the SWA1182 flight status page for this flight to view local times or setup timezone preferences in your user account.

Time Position Orientation Groundspeed Altitude Reporting Facility
EST Latitude Longitude Course Direction KTS MPH feet Rate Location/Type
09:46PM 38.6500 -121.5667 109° East 205 236 3,000  Level Northern Cal TRACON
09:47PM 38.6167 -121.4833 117° Southeast 256 295 5,700 3,000 Climbing Northern Cal TRACON
09:48PM 38.5667 -121.4000 127° Southeast 303 349 8,800 3,000 Climbing Northern Cal TRACON
09:50PM 38.5081 -121.2689 120° Southeast 341 392 12,800 2,880 Climbing Oakland Center
09:51PM 38.4536 -121.1525 121° Southeast 380 437 16,100 3,000 Climbing Oakland Center
09:52PM 38.3058 -120.9775 109° East  Level FlightAware Approximate
09:52PM 38.3961 -121.0303 121° Southeast 399 459 19,000  Level Oakland Center
09:53PM 38.3217 -120.8742 121° Southeast 430 495 22,100 2,640 Climbing Oakland Center
09:54PM 38.2553 -120.7367 122° Southeast 454 522 24,400 2,160 Climbing Oakland Center
09:55PM 38.1656 -120.6197 134° Southeast 464 534 26,600 1,920 Climbing Oakland Center
09:56PM 38.0631 -120.5183 142° Southeast 467 537 28,400 1,140 Climbing Oakland Center
09:57PM 37.9567 -120.4144 142° Southeast 478 550 29,000 240 Climbing Oakland Center
09:58PM 37.8506 -120.3122 143° Southeast 480 552 29,000 540 Level Oakland Center
09:59PM 37.7458 -120.2111 143° Southeast 475 547 30,100 1,620 Climbing Oakland Center
10:00PM 37.6428 -120.1117 143° Southeast 467 537 32,400 1,380 Climbing Oakland Center
10:01PM 37.5397 -120.0117 142° Southeast 468 539 33,000 240 Climbing Oakland Center
10:02PM 37.4347 -119.9114 143° Southeast 472 543 33,000  Level Oakland Center
10:03PM 37.2983 -119.8256 153° Southeast 463 533 33,000  Level Oakland Center
10:04PM 37.1906 -119.8119 174° South 447 514 33,000  Level Oakland Center
10:05PM 37.0689 -119.7903 172° South 443 510 33,000  Level Oakland Center
10:06PM 36.9461 -119.7708 173° South 444 511 33,000  Level Oakland Center
10:07PM 36.8000 -119.7464 172° South 442 509 33,000  Level Oakland Center
10:08PM 36.6786 -119.7278 173° South 441 507 33,000  Level Oakland Center
10:09PM 36.5567 -119.7081 173° South 440 506 33,000  Level Oakland Center
10:10PM 36.4353 -119.6881 172° South 440 506 33,000  Level Oakland Center
10:11PM 36.3103 -119.6672 172° South 448 516 33,000  Level Oakland Center
10:12PM 36.1858 -119.6472 173° South 450 518 33,000  Level Oakland Center
10:13PM 36.0608 -119.6281 173° South 450 518 33,000  Level Oakland Center
10:14PM 35.9353 -119.6156 175° South 452 520 33,000  Level Oakland Center
10:15PM 35.8117 -119.6222 183° South 446 513 33,000  Level Oakland Center
10:16PM 35.6636 -119.6261 181° South 445 512 33,000  Level Los Angeles Center
10:17PM 35.5397 -119.6311 182° South 442 509 33,000  Level Los Angeles Center
10:18PM 35.4158 -119.6358 182° South 443 510 33,000  Level Los Angeles Center
10:19PM 35.2911 -119.6403 182° South 445 512 33,000  Level Los Angeles Center
10:20PM 35.1747 -119.5739 155° Southeast 470 541 33,000 -120 Level Los Angeles Center
10:21PM 35.0669 -119.4808 145° Southeast 472 543 32,800 -1,560 Descending Los Angeles Center
10:23PM 34.9606 -119.3897 145° Southeast 469 540 29,900 -2,940 Descending Los Angeles Center
10:24PM 34.8519 -119.2981 145° Southeast 472 543 26,800 -3,000 Descending Los Angeles Center
10:25PM 34.7250 -119.1917 145° Southeast 464 534 23,700 -2,700 Descending Los Angeles Center
10:26PM 34.6250 -119.1078 145° Southeast 449 517 21,300 -2,400 Descending Los Angeles Center
10:27PM 34.5269 -119.0228 144° Southeast 428 493 18,900 -2,340 Descending Los Angeles Center
10:28PM 34.4322 -118.9436 145° Southeast 415 478 16,600 -2,400 Descending Los Angeles Center
10:29PM 34.3367 -118.8725 148° Southeast 403 464 14,000 -2,160 Descending Los Angeles Center
10:30PM 34.2342 -118.8361 164° South 384 442 12,200 -1,080 Descending Los Angeles Center
10:31PM 34.1436 -118.8039 164° South 340 391 11,800 -1,020 Descending Los Angeles Center
10:32PM 34.0486 -118.7558 157° South 309 356 10,100 -900 Descending Los Angeles Center
10:33PM 34.0294 -118.6603 104° East 298 343 10,000 -540 Descending Los Angeles Center
10:34PM 34.0211 -118.5703 96° East 272 313 9,000 -1,080 Descending Los Angeles Center
10:35PM 34.0117 -118.4742 97° East 268 308 7,800 -1,140 Descending Los Angeles Center
10:36PM 34.0181 -118.3981 84° East 259 298 6,700 -840 Descending Los Angeles Center
10:37PM 34.0278 -118.3178 82° East 249 287 6,100 -780 Descending Los Angeles Center
10:38PM 34.0356 -118.2483 82° East 225 259 5,200 -960 Descending Los Angeles Center
10:39PM 34.0136 -118.1972 117° Southeast 209 241 4,200 -960 Descending Los Angeles Center
10:40PM 33.9703 -118.2283 211° Southwest 181 208 3,300 -1,080 Descending Los Angeles Center
10:41PM 33.9650 -118.2822 263° West 170 196 2,000 -1,020 Descending Los Angeles Center
10:42PM 33.9600 -118.3322 263° West 160 184 1,200 -780 Descending Los Angeles Center
10:43PM 33.9561 -118.3775 264° West 148 170 500 -540 Descending Los Angeles Center
10:44PM 33.9508 -118.4272 263° West 142 163 200 -300 Descending Los Angeles Center
10:46PM 33.9425 -118.4081 220° Southwest  Level Estimated